createdAt,value
2023-07-19T00:06:17.788Z,3.55
2023-07-19T00:16:40.983Z,3.22
2023-07-19T00:27:03.317Z,4.25
2023-07-19T00:37:26.603Z,3.60
2023-07-19T00:47:49.215Z,3.50
2023-07-19T00:58:12.398Z,3.45
2023-07-19T01:08:34.134Z,4.32
2023-07-19T01:18:57.394Z,3.50
2023-07-19T01:29:21.099Z,3.42
2023-07-19T01:39:43.103Z,3.38
2023-07-19T01:50:06.820Z,3.85
2023-07-19T02:00:28.945Z,3.42
2023-07-19T02:10:51.931Z,3.70
2023-07-19T02:21:13.506Z,3.65
2023-07-19T02:31:36.835Z,3.22
2023-07-19T02:41:58.992Z,3.38
2023-07-19T02:52:23.186Z,3.60
2023-07-19T03:02:49.253Z,3.72
2023-07-19T03:23:34.873Z,3.25
2023-07-19T03:33:58.340Z,3.72
2023-07-19T03:44:20.131Z,3.80
2023-07-19T03:54:43.606Z,3.60
2023-07-19T04:05:07.261Z,3.63
2023-07-19T04:15:30.665Z,3.60
2023-07-19T04:25:52.992Z,3.30
2023-07-19T04:36:18.363Z,3.15
2023-07-19T04:46:43.381Z,3.22
2023-07-19T04:57:08.014Z,3.03
2023-07-19T05:07:32.228Z,3.10
2023-07-19T05:17:55.636Z,2.70
2023-07-19T05:28:21.661Z,2.78
2023-07-19T05:38:45.040Z,2.67
2023-07-19T05:49:06.949Z,2.90
2023-07-19T05:59:31.584Z,2.65
2023-07-19T06:09:53.592Z,2.50
2023-07-19T06:20:17.199Z,2.90
2023-07-19T06:30:39.108Z,3.03
2023-07-19T06:41:07.469Z,2.85
2023-07-19T06:51:30.844Z,2.70
2023-07-19T07:01:53.816Z,2.73
2023-07-19T07:12:15.934Z,2.17
2023-07-19T07:22:38.931Z,2.50
2023-07-19T07:43:31.414Z,2.60
2023-07-19T07:53:53.594Z,3.03
2023-07-19T08:04:17.024Z,3.05
2023-07-19T08:14:41.876Z,2.10
2023-07-19T08:25:20.306Z,2.10
2023-07-19T08:35:46.846Z,2.47
2023-07-19T08:46:16.450Z,2.30
2023-07-19T08:56:38.594Z,2.45
2023-07-19T09:07:04.766Z,2.10
2023-07-19T09:17:30.262Z,1.80
2023-07-19T09:27:54.490Z,1.80
2023-07-19T09:38:16.730Z,2.60
2023-07-19T09:48:39.946Z,2.60
2023-07-19T09:59:02.043Z,2.72
2023-07-19T10:09:42.219Z,2.50
2023-07-19T10:20:11.898Z,2.60
2023-07-19T10:30:52.043Z,2.50
2023-07-19T10:41:15.925Z,2.47
2023-07-19T10:51:39.127Z,2.33
2023-07-19T11:02:01.143Z,4.00
2023-07-19T11:12:27.637Z,1.80
2023-07-19T11:22:49.526Z,2.35
2023-07-19T11:33:12.825Z,1.85
2023-07-19T11:43:35.019Z,2.47
2023-07-19T11:54:00.950Z,2.35
2023-07-19T12:04:22.677Z,2.75
2023-07-19T12:14:45.820Z,2.53
2023-07-19T12:25:09.357Z,2.10
2023-07-19T12:35:37.017Z,2.55
2023-07-19T12:45:59.956Z,2.35
2023-07-19T12:56:25.154Z,2.80
2023-07-19T13:06:46.928Z,2.90
2023-07-19T13:17:22.009Z,2.80
2023-07-19T13:27:47.713Z,2.70
2023-07-19T13:38:11.057Z,2.60
2023-07-19T13:48:33.083Z,2.40
2023-07-19T13:58:56.169Z,2.50
2023-07-19T14:09:18.182Z,3.17
2023-07-19T14:19:43.771Z,2.28
2023-07-19T14:30:48.379Z,2.28
2023-07-19T14:41:10.881Z,2.60
2023-07-19T14:51:35.109Z,2.78
2023-07-19T15:01:58.921Z,2.80
2023-07-19T15:12:24.117Z,2.63
2023-07-19T15:22:55.176Z,3.05
2023-07-19T15:33:22.037Z,2.45
2023-07-19T15:43:49.049Z,2.28
2023-07-19T15:54:11.033Z,2.53
2023-07-19T16:04:34.322Z,2.33
2023-07-19T16:14:56.218Z,2.58
2023-07-19T16:25:19.660Z,2.28
2023-07-19T16:35:43.237Z,2.25
2023-07-19T16:46:06.767Z,2.28
2023-07-19T16:56:28.400Z,2.38
2023-07-19T17:06:53.162Z,2.35
2023-07-19T17:17:14.816Z,2.53
2023-07-19T17:27:37.986Z,2.75
2023-07-19T17:37:59.626Z,2.67
2023-07-19T17:48:23.059Z,2.47
2023-07-19T17:58:46.583Z,2.70
2023-07-19T18:09:09.363Z,2.60
2023-07-19T18:19:34.343Z,2.07
2023-07-19T18:29:57.524Z,2.20
2023-07-19T18:40:19.212Z,2.42
2023-07-19T18:50:42.825Z,2.15
2023-07-19T19:01:04.831Z,2.45
2023-07-19T19:11:29.137Z,2.20
2023-07-19T19:21:50.782Z,2.30
2023-07-19T19:32:14.236Z,2.35
2023-07-19T19:42:42.044Z,2.50
2023-07-19T19:53:10.761Z,3.15
2023-07-19T20:03:36.732Z,3.58
2023-07-19T20:14:01.758Z,3.38
2023-07-19T20:35:02.670Z,3.85
2023-07-19T20:45:27.667Z,3.50
2023-07-19T20:55:53.885Z,3.67
2023-07-19T21:06:15.616Z,3.67
2023-07-19T21:16:38.920Z,4.00
2023-07-19T21:27:00.837Z,4.20
2023-07-19T21:37:24.387Z,4.05
2023-07-19T21:47:46.260Z,4.10
2023-07-19T21:58:12.235Z,3.83
2023-07-19T22:18:59.807Z,5.07
2023-07-19T22:29:21.470Z,4.97
2023-07-19T22:39:44.384Z,5.00
2023-07-19T22:50:07.458Z,5.47
2023-07-19T23:00:31.592Z,5.18
2023-07-19T23:10:53.398Z,5.47
2023-07-19T23:21:17.146Z,5.90
2023-07-19T23:31:40.762Z,5.60
2023-07-19T23:42:03.946Z,5.65
2023-07-19T23:52:25.667Z,6.25
